Time,TemperatureF,DewpointF,PressureIn,WindDirection,WindDirectionDegrees,WindSpeedMPH,WindSpeedGustMPH,Humidity,HourlyPrecipIn,Conditions,Clouds,dailyrainin,SoftwareType,DateUTC
2013-09-30 00:01:00,52.2,46.9,29.46,SW,233,13.0,25.0,82,0.00,,,0.00,WUHU216DAVISVP2,2013-09-30 07:01:00,
2013-09-30 00:06:00,52.2,46.9,29.46,SW,221,17.0,25.0,82,0.00,,,0.00,WUHU216DAVISVP2,2013-09-30 07:06:00,
2013-09-30 00:11:00,52.1,46.8,29.45,SW,217,20.0,25.0,82,0.00,,,0.00,WUHU216DAVISVP2,2013-09-30 07:11:00,
2013-09-30 00:16:00,52.1,46.5,29.46,SW,215,10.0,29.0,81,0.00,,,0.00,WUHU216DAVISVP2,2013-09-30 07:16:00,
2013-09-30 00:21:00,51.9,45.6,29.46,SSW,208,15.0,29.0,79,0.00,,,0.00,WUHU216DAVISVP2,2013-09-30 07:21:00,
2013-09-30 00:26:00,51.8,44.9,29.46,SW,236,21.0,29.0,77,0.00,,,0.00,WUHU216DAVISVP2,2013-09-30 07:26:00,
2013-09-30 00:31:00,51.7,43.8,29.47,WSW,256,14.0,31.0,74,0.00,,,0.00,WUHU216DAVISVP2,2013-09-30 07:31:00,
2013-09-30 00:36:00,51.4,43.8,29.47,WSW,238,22.0,31.0,75,0.00,,,0.00,WUHU216DAVISVP2,2013-09-30 07:36:00,
2013-09-30 00:41:00,51.4,43.5,29.48,SW,236,13.0,37.0,74,0.00,,,0.00,WUHU216DAVISVP2,2013-09-30 07:41:00,
2013-09-30 00:46:00,51.0,44.1,29.48,WSW,256,20.0,37.0,77,0.00,,,0.00,WUHU216DAVISVP2,2013-09-30 07:46:00,
2013-09-30 00:51:00,50.7,44.8,29.48,WSW,248,11.0,37.0,80,0.00,,,0.00,WUHU216DAVISVP2,2013-09-30 07:51:00,
2013-09-30 00:56:00,50.5,44.6,29.48,SW,215,18.0,37.0,80,0.00,,,0.00,WUHU216DAVISVP2,2013-09-30 07:56:00,
2013-09-30 01:01:00,50.5,44.6,29.48,SSW,193,14.0,30.0,80,0.00,,,0.00,WUHU216DAVISVP2,2013-09-30 08:01:00,
2013-09-30 01:06:00,50.3,44.7,29.49,WNW,302,9.0,26.0,81,0.00,,,0.00,WUHU216DAVISVP2,2013-09-30 08:06:00,
2013-09-30 01:12:00,50.3,45.0,29.49,SSW,207,14.0,25.0,82,0.00,,,0.00,WUHU216DAVISVP2,2013-09-30 08:12:00,
2013-09-30 01:17:00,50.4,45.4,29.49,South,186,5.0,24.0,83,0.00,,,0.00,WUHU216DAVISVP2,2013-09-30 08:17:00,
2013-09-30 01:22:00,50.5,45.8,29.49,South,187,3.0,24.0,84,0.00,,,0.00,WUHU216DAVISVP2,2013-09-30 08:22:00,
2013-09-30 01:27:00,50.5,45.5,29.49,WSW,249,14.0,23.0,83,0.00,,,0.00,WUHU216DAVISVP2,2013-09-30 08:27:00,
2013-09-30 01:32:00,50.5,45.5,29.49,South,186,4.0,22.0,83,0.00,,,0.00,WUHU216DAVISVP2,2013-09-30 08:32:00,
2013-09-30 01:36:00,50.4,45.1,29.49,WSW,239,8.0,21.0,82,0.00,,,0.00,WUHU216DAVISVP2,2013-09-30 08:36:00,